createdAt,value
2018-05-29T00:01:14.773Z,6.97
2018-05-29T00:03:40.739Z,7.13
2018-05-29T00:06:06.695Z,7.20
2018-05-29T00:08:32.612Z,7.07
2018-05-29T00:10:58.520Z,7.17
2018-05-29T00:13:24.461Z,6.80
2018-05-29T00:15:50.451Z,6.33
2018-05-29T00:18:16.363Z,6.67
2018-05-29T00:20:42.321Z,6.53
2018-05-29T00:23:08.233Z,6.80
2018-05-29T00:25:34.150Z,6.67
2018-05-29T00:28:00.180Z,6.37
2018-05-29T00:30:26.166Z,6.90
2018-05-29T00:32:52.098Z,6.83
2018-05-29T00:35:18.057Z,6.80
2018-05-29T00:37:44.004Z,7.23
2018-05-29T00:40:10.040Z,7.37
2018-05-29T00:42:36.028Z,7.20
2018-05-29T00:45:02.192Z,7.10
2018-05-29T00:47:28.062Z,6.97
2018-05-29T00:49:54.021Z,6.73
2018-05-29T00:52:20.364Z,7.33
2018-05-29T00:54:58.493Z,6.83
2018-05-29T00:57:24.387Z,6.63
2018-05-29T00:59:50.341Z,6.90
2018-05-29T01:02:16.275Z,7.07
2018-05-29T01:04:42.309Z,6.93
2018-05-29T01:07:08.247Z,6.73
2018-05-29T01:09:34.189Z,6.77
2018-05-29T01:12:00.117Z,7.33
2018-05-29T01:14:25.964Z,7.20
2018-05-29T01:16:52.019Z,7.07
2018-05-29T01:19:18.007Z,7.30
2018-05-29T01:21:43.879Z,7.17
2018-05-29T01:24:10.665Z,7.07
2018-05-29T01:29:34.573Z,7.53
2018-05-29T01:32:00.489Z,7.33
2018-05-29T01:34:26.355Z,7.40
2018-05-29T01:36:52.292Z,7.20
2018-05-29T01:39:18.175Z,7.23
2018-05-29T01:41:44.280Z,7.40
2018-05-29T01:44:10.171Z,7.03
2018-05-29T01:46:36.103Z,6.80
2018-05-29T01:49:01.981Z,7.40
2018-05-29T01:51:28.221Z,7.37
2018-05-29T01:53:54.245Z,7.03
2018-05-29T01:56:20.133Z,7.67
2018-05-29T01:58:46.036Z,7.23
2018-05-29T02:01:11.904Z,6.60
2018-05-29T02:03:37.779Z,7.33
2018-05-29T02:06:03.895Z,6.73
2018-05-29T02:08:29.780Z,7.37
2018-05-29T02:10:55.721Z,7.17
2018-05-29T02:13:21.649Z,6.57
2018-05-29T02:15:47.557Z,6.53
2018-05-29T02:18:13.558Z,6.40
2018-05-29T02:20:39.497Z,6.97
2018-05-29T02:23:05.398Z,6.80
2018-05-29T02:25:31.280Z,6.60
2018-05-29T02:27:57.216Z,7.27
2018-05-29T02:30:23.257Z,7.30
2018-05-29T02:32:49.119Z,7.07
2018-05-29T02:35:15.082Z,7.70
2018-05-29T02:37:40.947Z,7.07
2018-05-29T02:40:06.847Z,6.23
2018-05-29T02:42:32.937Z,6.77
2018-05-29T02:44:58.843Z,6.73
2018-05-29T02:47:24.740Z,7.07
2018-05-29T02:49:50.667Z,6.60
2018-05-29T02:52:16.562Z,6.90
2018-05-29T02:54:42.578Z,7.03
2018-05-29T02:57:08.557Z,6.43
2018-05-29T02:59:34.450Z,6.77
2018-05-29T03:02:00.360Z,6.60
2018-05-29T03:04:26.347Z,7.00
2018-05-29T03:06:52.393Z,6.97
2018-05-29T03:09:18.303Z,6.87
2018-05-29T03:11:44.243Z,6.70
2018-05-29T03:14:10.104Z,6.57
2018-05-29T03:16:35.971Z,6.63
2018-05-29T03:19:02.038Z,6.80
2018-05-29T03:21:27.911Z,6.80
2018-05-29T03:23:53.797Z,6.53
2018-05-29T03:26:19.739Z,7.43
2018-05-29T03:28:45.630Z,7.60
2018-05-29T03:31:11.677Z,6.90
2018-05-29T03:33:37.649Z,6.50
2018-05-29T03:36:03.539Z,7.07
2018-05-29T03:38:29.461Z,7.03
2018-05-29T03:40:55.414Z,7.40
2018-05-29T03:43:22.972Z,6.63
2018-05-29T03:45:48.872Z,7.10
2018-05-29T03:48:14.797Z,7.30
2018-05-29T03:50:40.655Z,7.20
2018-05-29T03:53:06.557Z,7.37
2018-05-29T03:55:32.623Z,7.13
2018-05-29T03:57:58.501Z,7.53
2018-05-29T04:00:24.397Z,7.43
2018-05-29T04:02:50.315Z,7.40
2018-05-29T04:05:16.189Z,6.80
2018-05-29T04:07:42.216Z,7.03
2018-05-29T04:10:08.128Z,7.50
2018-05-29T04:12:34.015Z,6.87
2018-05-29T04:14:59.883Z,7.80
2018-05-29T04:17:25.834Z,7.97
2018-05-29T04:19:52.454Z,7.80
2018-05-29T04:22:18.364Z,7.20
2018-05-29T04:24:44.411Z,7.97
2018-05-29T04:27:11.412Z,7.73
2018-05-29T04:29:37.364Z,7.60
2018-05-29T04:32:03.368Z,8.00
2018-05-29T04:34:29.261Z,7.30
2018-05-29T04:36:55.222Z,7.10
2018-05-29T04:39:21.141Z,7.27
2018-05-29T04:41:47.048Z,7.27
2018-05-29T04:44:12.925Z,7.40
2018-05-29T04:46:39.821Z,7.30
2018-05-29T04:49:05.811Z,6.97
2018-05-29T04:51:31.715Z,7.03
2018-05-29T04:53:57.708Z,6.90
2018-05-29T04:56:23.741Z,7.30
2018-05-29T04:58:49.649Z,6.67
2018-05-29T05:01:16.024Z,6.47
2018-05-29T05:03:41.893Z,6.60
2018-05-29T05:06:07.796Z,7.23
2018-05-29T05:08:33.723Z,6.37
2018-05-29T05:10:59.610Z,6.40
2018-05-29T05:13:25.555Z,6.53
2018-05-29T05:15:51.496Z,6.30
2018-05-29T05:18:17.387Z,7.30
2018-05-29T05:20:43.251Z,5.90
2018-05-29T05:23:09.202Z,6.30
2018-05-29T05:25:35.137Z,6.53
2018-05-29T05:28:01.034Z,7.30
2018-05-29T05:30:26.957Z,7.27
2018-05-29T05:32:52.905Z,6.90
2018-05-29T05:35:18.810Z,7.00
2018-05-29T05:37:44.833Z,6.60
2018-05-29T05:40:10.711Z,5.90
2018-05-29T05:42:37.539Z,6.33
2018-05-29T05:45:03.465Z,5.53
2018-05-29T05:47:29.386Z,5.93
2018-05-29T05:49:55.255Z,5.97
2018-05-29T05:52:21.183Z,6.00
2018-05-29T05:54:48.069Z,6.00
2018-05-29T05:57:13.930Z,5.90
2018-05-29T05:59:39.860Z,5.90
2018-05-29T06:02:06.654Z,5.83
2018-05-29T06:04:32.545Z,6.83
2018-05-29T06:06:58.511Z,6.00
2018-05-29T06:09:25.140Z,5.70
2018-05-29T06:11:51.025Z,5.90
2018-05-29T06:16:49.477Z,5.07
2018-05-29T06:19:15.361Z,5.80
2018-05-29T06:21:41.360Z,5.43
2018-05-29T06:24:07.230Z,5.40
2018-05-29T06:26:33.152Z,4.93
2018-05-29T06:28:59.095Z,4.87
2018-05-29T06:31:24.987Z,5.00
2018-05-29T06:33:51.917Z,4.53
2018-05-29T06:36:17.867Z,4.67
2018-05-29T06:38:45.065Z,5.00
2018-05-29T06:41:10.956Z,4.90
2018-05-29T06:43:36.888Z,4.40
2018-05-29T06:46:02.788Z,4.33
2018-05-29T06:48:28.653Z,4.23
2018-05-29T06:50:54.689Z,4.13
2018-05-29T06:53:20.599Z,4.33
2018-05-29T06:55:47.456Z,4.30
2018-05-29T06:58:13.376Z,4.23
2018-05-29T07:00:39.265Z,4.07
2018-05-29T07:03:05.237Z,3.90
2018-05-29T07:05:31.156Z,4.20
2018-05-29T07:07:57.038Z,4.10
2018-05-29T07:10:22.993Z,4.27
2018-05-29T07:12:48.939Z,3.60
2018-05-29T07:15:14.916Z,4.17
2018-05-29T07:17:40.826Z,4.10
2018-05-29T07:20:06.772Z,4.13
2018-05-29T07:22:32.675Z,3.90
2018-05-29T07:24:58.544Z,3.87
2018-05-29T07:27:24.488Z,4.00
2018-05-29T07:29:50.352Z,3.60
2018-05-29T07:32:17.598Z,3.77
2018-05-29T07:34:43.547Z,3.20
2018-05-29T07:37:09.433Z,3.47
2018-05-29T07:39:35.376Z,3.00
2018-05-29T07:42:01.335Z,3.23
2018-05-29T07:44:27.261Z,3.20
2018-05-29T07:46:53.168Z,3.20
2018-05-29T07:49:19.118Z,3.30
2018-05-29T07:51:45.037Z,3.07
2018-05-29T07:54:10.938Z,3.43
2018-05-29T07:56:36.857Z,3.37
2018-05-29T07:59:02.765Z,2.90
2018-05-29T08:01:28.748Z,2.80
2018-05-29T08:03:54.750Z,3.00
2018-05-29T08:06:20.713Z,3.13
2018-05-29T08:08:46.584Z,3.20
2018-05-29T08:11:12.533Z,2.97
2018-05-29T08:13:38.457Z,3.00
2018-05-29T08:16:04.352Z,3.00
2018-05-29T08:18:30.317Z,3.23
2018-05-29T08:20:56.243Z,3.40
2018-05-29T08:23:22.130Z,2.80
2018-05-29T08:25:48.061Z,3.30
2018-05-29T08:28:13.961Z,3.27
2018-05-29T08:30:39.863Z,2.97
2018-05-29T08:33:05.785Z,2.57
2018-05-29T08:35:31.713Z,3.17
2018-05-29T08:37:57.685Z,3.20
2018-05-29T08:40:23.646Z,2.70
2018-05-29T08:42:49.563Z,2.87
2018-05-29T08:45:15.487Z,3.50
2018-05-29T08:47:41.428Z,2.97
2018-05-29T08:50:07.308Z,2.70
2018-05-29T08:52:33.199Z,2.83
2018-05-29T08:54:59.100Z,2.80
2018-05-29T08:57:25.101Z,2.87
2018-05-29T08:59:50.981Z,2.70
2018-05-29T09:02:16.942Z,2.90
2018-05-29T09:04:42.844Z,2.80
2018-05-29T09:07:08.722Z,2.77
2018-05-29T09:09:34.650Z,3.03
2018-05-29T09:12:00.514Z,3.13
2018-05-29T09:14:26.432Z,2.90
2018-05-29T09:16:52.489Z,2.87
2018-05-29T09:19:18.373Z,2.77
2018-05-29T09:21:44.236Z,2.60
2018-05-29T09:24:10.178Z,2.77
2018-05-29T09:26:36.057Z,3.10
2018-05-29T09:29:01.932Z,3.23
2018-05-29T09:31:27.896Z,3.00
2018-05-29T09:33:53.985Z,2.97
2018-05-29T09:36:19.930Z,3.20
2018-05-29T09:38:45.885Z,2.83
2018-05-29T09:41:11.893Z,3.33
2018-05-29T09:43:37.787Z,2.97
2018-05-29T09:46:03.721Z,3.53
2018-05-29T09:48:29.604Z,3.57
2018-05-29T09:50:55.700Z,3.40
2018-05-29T09:53:21.641Z,3.03
2018-05-29T09:55:47.532Z,3.00
2018-05-29T09:58:13.425Z,3.20
2018-05-29T10:00:39.358Z,3.20
2018-05-29T10:03:05.241Z,3.30
2018-05-29T10:05:31.273Z,3.30
2018-05-29T10:07:57.927Z,3.17
2018-05-29T10:10:24.165Z,3.00
2018-05-29T10:12:50.076Z,2.97
2018-05-29T10:15:16.009Z,3.43
2018-05-29T10:17:41.904Z,3.03
2018-05-29T10:20:07.799Z,2.77
2018-05-29T10:22:33.740Z,3.17
2018-05-29T10:24:59.608Z,3.30
2018-05-29T10:27:25.480Z,3.37
2018-05-29T10:29:51.424Z,3.57
2018-05-29T10:32:17.312Z,3.50
2018-05-29T10:34:43.242Z,3.30
2018-05-29T10:37:09.186Z,3.30
2018-05-29T10:39:35.121Z,3.37
2018-05-29T10:42:01.064Z,3.47
2018-05-29T10:44:27.473Z,3.17
2018-05-29T10:46:53.355Z,3.17
2018-05-29T10:49:19.287Z,3.35
2018-05-29T10:51:45.256Z,4.00
2018-05-29T10:54:11.520Z,3.83
2018-05-29T10:56:37.413Z,3.67
2018-05-29T10:59:03.360Z,3.45
2018-05-29T11:01:29.235Z,3.75
2018-05-29T11:03:55.118Z,4.10
2018-05-29T11:06:21.063Z,3.65
2018-05-29T11:08:47.031Z,3.87
2018-05-29T11:11:12.914Z,4.20
2018-05-29T11:13:38.905Z,4.07
2018-05-29T11:16:04.788Z,4.00
2018-05-29T11:18:30.700Z,4.20
2018-05-29T11:20:57.633Z,3.80
2018-05-29T11:23:23.504Z,4.32
2018-05-29T11:25:49.379Z,4.50
2018-05-29T11:28:15.333Z,4.87
2018-05-29T11:30:41.233Z,4.65
2018-05-29T11:33:07.153Z,5.00
2018-05-29T11:35:33.091Z,4.90
2018-05-29T11:37:58.984Z,4.95
2018-05-29T11:40:24.868Z,5.03
2018-05-29T11:42:50.874Z,4.43
2018-05-29T11:45:16.752Z,5.05
2018-05-29T11:47:42.638Z,4.20
2018-05-29T11:50:09.131Z,5.10
2018-05-29T11:52:35.010Z,4.90
2018-05-29T11:55:00.912Z,4.95
2018-05-29T11:57:26.847Z,5.00
2018-05-29T11:59:52.745Z,4.72
2018-05-29T12:02:18.676Z,4.25
2018-05-29T12:04:44.597Z,4.37
2018-05-29T12:07:10.509Z,4.55
2018-05-29T12:09:36.409Z,4.10
2018-05-29T12:12:14.759Z,4.35
2018-05-29T12:14:40.666Z,4.93
2018-05-29T12:17:06.532Z,4.30
2018-05-29T12:19:32.472Z,4.53
2018-05-29T12:21:59.255Z,4.85
2018-05-29T12:24:25.184Z,4.70
2018-05-29T12:26:52.118Z,5.12
2018-05-29T12:29:18.058Z,5.20
2018-05-29T12:31:43.994Z,4.87
2018-05-29T12:34:09.899Z,5.10
2018-05-29T12:36:35.834Z,4.90
2018-05-29T12:39:01.781Z,4.80
2018-05-29T12:41:27.732Z,4.47
2018-05-29T12:43:53.656Z,4.70
2018-05-29T12:46:19.631Z,5.07
2018-05-29T12:48:45.508Z,4.93
2018-05-29T12:51:11.409Z,4.40
2018-05-29T12:53:38.189Z,4.50
2018-05-29T12:56:04.135Z,4.53
2018-05-29T12:58:29.999Z,4.77
2018-05-29T13:00:55.883Z,4.87
2018-05-29T13:03:21.831Z,4.00
2018-05-29T13:05:47.701Z,4.33
2018-05-29T13:08:13.574Z,4.27
2018-05-29T13:10:39.483Z,4.40
2018-05-29T13:13:05.405Z,4.40
2018-05-29T13:15:31.304Z,4.27
2018-05-29T13:17:57.573Z,4.30
2018-05-29T13:20:23.463Z,4.50
2018-05-29T13:22:49.355Z,4.40
2018-05-29T13:25:15.283Z,4.20
2018-05-29T13:27:41.206Z,4.37
2018-05-29T13:30:07.102Z,4.53
2018-05-29T13:32:33.051Z,4.67
2018-05-29T13:34:58.948Z,4.93
2018-05-29T13:37:24.819Z,5.07
2018-05-29T13:39:50.740Z,4.77
2018-05-29T13:42:16.677Z,4.33
2018-05-29T13:44:42.644Z,4.87
2018-05-29T13:47:08.555Z,4.40
2018-05-29T13:49:34.439Z,4.60
2018-05-29T13:52:00.325Z,4.57
2018-05-29T13:54:26.278Z,4.50
2018-05-29T13:56:52.159Z,4.27
2018-05-29T13:59:18.117Z,4.20
2018-05-29T14:01:44.103Z,4.93
2018-05-29T14:04:09.976Z,4.43
2018-05-29T14:06:35.890Z,4.40
2018-05-29T14:09:02.102Z,4.47
2018-05-29T14:11:27.991Z,4.63
2018-05-29T14:13:53.880Z,4.57
2018-05-29T14:16:19.798Z,4.70
2018-05-29T14:18:45.690Z,4.33
2018-05-29T14:21:11.589Z,4.80
2018-05-29T14:23:37.519Z,4.00
2018-05-29T14:26:03.405Z,4.53
2018-05-29T14:28:29.292Z,4.83
2018-05-29T14:30:55.261Z,4.50
2018-05-29T14:33:22.021Z,4.80
2018-05-29T14:35:47.919Z,4.63
2018-05-29T14:38:13.890Z,4.57
2018-05-29T14:40:39.782Z,4.70
2018-05-29T14:43:05.679Z,4.50
2018-05-29T14:45:31.884Z,4.60
2018-05-29T14:47:57.762Z,4.47
2018-05-29T14:50:23.643Z,4.70
2018-05-29T14:52:49.573Z,4.60
2018-05-29T14:55:15.530Z,4.63
2018-05-29T14:57:41.429Z,5.00
2018-05-29T15:00:07.355Z,4.80
2018-05-29T15:02:33.239Z,5.10
2018-05-29T15:04:59.109Z,4.72
2018-05-29T15:07:25.031Z,4.70
2018-05-29T15:09:50.931Z,4.20
2018-05-29T15:12:16.815Z,4.60
2018-05-29T15:14:43.643Z,4.53
2018-05-29T15:17:09.648Z,4.57
2018-05-29T15:19:35.528Z,4.55
2018-05-29T15:22:01.451Z,4.53
2018-05-29T15:24:27.379Z,4.47
2018-05-29T15:26:53.271Z,5.12
2018-05-29T15:29:19.199Z,4.72
2018-05-29T15:31:45.072Z,4.57
2018-05-29T15:34:10.989Z,4.60
2018-05-29T15:36:37.624Z,4.70
2018-05-29T15:39:03.561Z,4.30
2018-05-29T15:41:29.482Z,4.57
2018-05-29T15:43:55.413Z,4.47
2018-05-29T15:46:21.357Z,4.50
2018-05-29T15:48:47.269Z,4.45
2018-05-29T15:51:13.224Z,4.70
2018-05-29T15:53:39.096Z,4.70
2018-05-29T15:56:05.014Z,4.68
2018-05-29T15:58:30.941Z,4.65
2018-05-29T16:00:56.846Z,4.22
2018-05-29T16:03:22.717Z,4.20
2018-05-29T16:05:48.668Z,4.30
2018-05-29T16:08:14.545Z,4.33
2018-05-29T16:10:40.436Z,4.17
2018-05-29T16:13:06.415Z,3.63
2018-05-29T16:15:32.310Z,4.70
2018-05-29T16:17:58.205Z,4.50
2018-05-29T16:20:24.158Z,4.27
2018-05-29T16:22:50.052Z,4.53
2018-05-29T16:25:15.953Z,3.93
2018-05-29T16:27:42.450Z,4.17
2018-05-29T16:30:09.129Z,3.40
2018-05-29T16:32:35.070Z,3.47
2018-05-29T16:35:01.041Z,3.70
2018-05-29T16:37:26.948Z,3.33
2018-05-29T16:39:52.936Z,3.67
2018-05-29T16:42:18.881Z,3.17
2018-05-29T16:44:44.796Z,3.30
2018-05-29T16:47:10.703Z,3.53
2018-05-29T16:49:36.651Z,3.20
2018-05-29T16:52:02.549Z,3.63
2018-05-29T16:54:28.461Z,3.30
2018-05-29T16:56:54.385Z,3.30
2018-05-29T16:59:20.276Z,3.20
2018-05-29T17:01:46.241Z,3.13
2018-05-29T17:04:12.191Z,3.40
2018-05-29T17:06:38.142Z,3.27
2018-05-29T17:09:04.995Z,3.37
2018-05-29T17:11:31.001Z,3.37
2018-05-29T17:13:56.895Z,3.30
2018-05-29T17:16:22.788Z,3.27
2018-05-29T17:18:48.736Z,3.07
2018-05-29T17:21:14.677Z,3.00
2018-05-29T17:23:41.497Z,2.97
2018-05-29T17:26:07.440Z,3.17
2018-05-29T17:28:33.331Z,3.23
2018-05-29T17:30:59.244Z,2.97
2018-05-29T17:33:25.175Z,3.03
2018-05-29T17:35:51.085Z,2.87
2018-05-29T17:38:17.027Z,3.20
2018-05-29T17:40:42.904Z,3.00
2018-05-29T17:43:08.775Z,2.77
2018-05-29T17:45:34.675Z,2.80
2018-05-29T17:48:00.685Z,2.70
2018-05-29T17:50:26.571Z,3.23
2018-05-29T17:52:52.543Z,2.97
2018-05-29T17:55:18.472Z,3.13
2018-05-29T17:57:44.384Z,2.87
2018-05-29T18:00:10.275Z,3.57
2018-05-29T18:02:36.221Z,2.93
2018-05-29T18:05:02.116Z,2.87
2018-05-29T18:07:28.013Z,3.33
2018-05-29T18:09:53.958Z,2.73
2018-05-29T18:12:19.851Z,2.70
2018-05-29T18:14:45.769Z,2.80
2018-05-29T18:17:11.740Z,2.67
2018-05-29T18:19:37.617Z,2.63
2018-05-29T18:22:03.519Z,2.87
2018-05-29T18:24:29.462Z,2.80
2018-05-29T18:26:55.339Z,2.57
2018-05-29T18:29:21.232Z,3.00
2018-05-29T18:31:47.176Z,2.97
2018-05-29T18:34:13.079Z,2.90
2018-05-29T18:36:38.993Z,2.60
2018-05-29T18:39:04.952Z,2.87
2018-05-29T18:41:30.857Z,3.20
2018-05-29T18:43:56.735Z,2.73
2018-05-29T18:46:22.688Z,2.67
2018-05-29T18:48:48.625Z,2.47
2018-05-29T18:51:14.522Z,2.80
2018-05-29T18:53:40.456Z,2.80
2018-05-29T18:56:06.377Z,2.57
2018-05-29T18:58:32.267Z,2.60
2018-05-29T19:00:58.194Z,2.73
2018-05-29T19:03:24.179Z,2.70
2018-05-29T19:05:50.073Z,2.80
2018-05-29T19:08:16.020Z,2.57
2018-05-29T19:10:41.901Z,2.50
2018-05-29T19:13:07.812Z,3.53
2018-05-29T19:15:33.752Z,3.57
2018-05-29T19:17:59.644Z,3.97
2018-05-29T19:20:25.541Z,3.90
2018-05-29T19:22:51.515Z,3.43
2018-05-29T19:25:17.351Z,3.47
2018-05-29T19:27:43.227Z,3.27
2018-05-29T19:30:09.189Z,3.13
2018-05-29T19:32:35.078Z,3.20
2018-05-29T19:35:00.993Z,3.63
2018-05-29T19:37:26.906Z,3.43
2018-05-29T19:39:52.792Z,3.93
2018-05-29T19:42:18.688Z,3.20
2018-05-29T19:44:44.649Z,3.13
2018-05-29T19:47:10.554Z,3.67
2018-05-29T19:49:36.534Z,3.30
2018-05-29T19:52:02.488Z,3.63
2018-05-29T19:54:28.363Z,3.30
2018-05-29T19:56:54.264Z,3.80
2018-05-29T19:59:20.193Z,3.87
2018-05-29T20:01:46.106Z,4.67
2018-05-29T20:04:12.008Z,4.40
2018-05-29T20:06:37.938Z,5.03
2018-05-29T20:09:04.742Z,4.07
2018-05-29T20:11:30.640Z,4.10
2018-05-29T20:13:56.568Z,3.60
2018-05-29T20:16:22.458Z,4.20
2018-05-29T20:18:48.364Z,3.90
2018-05-29T20:21:14.325Z,4.37
2018-05-29T20:23:40.199Z,4.53
2018-05-29T20:26:06.151Z,4.13
2018-05-29T20:28:32.063Z,4.13
2018-05-29T20:30:57.973Z,3.70
2018-05-29T20:33:23.881Z,3.63
2018-05-29T20:35:49.801Z,4.03
2018-05-29T20:38:15.700Z,4.33
2018-05-29T20:40:41.563Z,4.13
2018-05-29T20:43:07.483Z,4.30
2018-05-29T20:45:33.360Z,4.20
2018-05-29T20:47:59.474Z,4.77
2018-05-29T20:50:25.483Z,4.20
2018-05-29T20:52:51.368Z,5.03
2018-05-29T20:55:23.097Z,4.50
2018-05-29T20:57:48.984Z,5.03
2018-05-29T21:00:14.896Z,4.60
2018-05-29T21:02:40.763Z,4.03
2018-05-29T21:05:06.715Z,3.53
2018-05-29T21:07:32.595Z,3.53
2018-05-29T21:09:58.494Z,4.00
2018-05-29T21:12:24.485Z,3.23
2018-05-29T21:14:51.323Z,3.70
2018-05-29T21:17:17.200Z,3.63
2018-05-29T21:19:43.134Z,3.87
2018-05-29T21:22:09.047Z,3.77
2018-05-29T21:24:34.959Z,3.83
2018-05-29T21:27:00.892Z,3.30
2018-05-29T21:29:26.778Z,3.13
2018-05-29T21:31:52.663Z,3.23
2018-05-29T21:34:18.586Z,3.53
2018-05-29T21:36:44.460Z,3.70
2018-05-29T21:39:10.341Z,3.40
2018-05-29T21:41:36.291Z,3.30
2018-05-29T21:44:02.208Z,3.27
2018-05-29T21:46:28.126Z,3.67
2018-05-29T21:48:54.065Z,3.43
2018-05-29T21:51:20.003Z,3.90
2018-05-29T21:53:45.909Z,3.00
2018-05-29T21:56:12.960Z,3.50
2018-05-29T21:58:38.840Z,3.30
2018-05-29T22:01:04.787Z,3.37
2018-05-29T22:03:30.743Z,3.17
2018-05-29T22:05:56.629Z,3.20
2018-05-29T22:08:22.608Z,3.77
2018-05-29T22:10:48.561Z,3.77
2018-05-29T22:13:14.439Z,3.10
2018-05-29T22:15:40.401Z,3.60
2018-05-29T22:18:06.434Z,3.67
2018-05-29T22:20:32.362Z,3.67
2018-05-29T22:22:58.536Z,3.50
2018-05-29T22:25:24.537Z,3.77
2018-05-29T22:27:50.437Z,3.47
2018-05-29T22:30:16.439Z,3.73
2018-05-29T22:32:42.891Z,3.60
2018-05-29T22:35:09.320Z,3.97
2018-05-29T22:37:35.234Z,3.20
2018-05-29T22:40:01.183Z,3.20
2018-05-29T22:42:27.103Z,3.60
2018-05-29T22:44:53.072Z,3.57
2018-05-29T22:47:19.381Z,3.57
2018-05-29T22:49:45.508Z,3.40
2018-05-29T22:52:11.396Z,3.77
2018-05-29T22:54:37.337Z,3.33
2018-05-29T22:57:03.232Z,3.40
2018-05-29T22:59:29.104Z,3.80
2018-05-29T23:01:55.041Z,3.40
2018-05-29T23:04:20.948Z,3.37
2018-05-29T23:06:46.849Z,3.90
2018-05-29T23:09:12.993Z,3.60
2018-05-29T23:11:39.000Z,4.07
2018-05-29T23:14:04.871Z,4.10
2018-05-29T23:16:30.871Z,3.70
2018-05-29T23:18:56.777Z,4.10
2018-05-29T23:21:22.716Z,3.87
2018-05-29T23:23:48.655Z,3.70
2018-05-29T23:26:14.655Z,3.83
2018-05-29T23:28:41.443Z,4.10
2018-05-29T23:31:07.397Z,4.00
2018-05-29T23:33:33.274Z,3.67
2018-05-29T23:36:00.022Z,4.47
2018-05-29T23:38:25.943Z,4.30
2018-05-29T23:40:51.841Z,4.20
2018-05-29T23:43:17.732Z,4.00
2018-05-29T23:45:43.730Z,3.90
2018-05-29T23:48:09.634Z,4.50
2018-05-29T23:50:35.511Z,4.40
2018-05-29T23:53:01.441Z,4.30
2018-05-29T23:55:27.344Z,4.73
2018-05-29T23:57:53.242Z,4.17
